Time;durP1;ratioP1;P1;durP2;ratioP2;P2;SDS_P1;SDS_P2;PMS_P1;PMS_P2;Temp;Humidity;BMP_temperature;BMP_pressure;BME280_temperature;BME280_humidity;BME280_pressure;Samples;Min_cycle;Max_cycle;Signal;HPM_P1;HPM_P2
2022/07/30 00:01:09;;;;;;;3.37;3.00;;;;;;;19.28;59.02;99600.16;4996367;28;20254;-74
2022/07/30 00:03:34;;;;;;;3.77;3.37;;;;;;;19.18;59.23;99606.44;5005420;28;20591;-74
2022/07/30 00:06:00;;;;;;;4.20;3.37;;;;;;;19.09;59.93;99596.72;5007738;28;20217;-74
2022/07/30 00:08:25;;;;;;;4.07;3.43;;;;;;;19.03;60.00;99599.97;4990566;28;20232;-75
2022/07/30 00:10:51;;;;;;;6.00;3.10;;;;;;;18.98;59.95;99600.44;4987302;28;20301;-75
2022/07/30 00:13:17;;;;;;;4.90;3.67;;;;;;;18.90;60.47;99599.50;4986033;28;20244;-75
2022/07/30 00:15:43;;;;;;;3.03;2.70;;;;;;;18.84;60.56;99592.13;4986515;28;20207;-75
2022/07/30 00:18:08;;;;;;;4.00;3.67;;;;;;;18.75;60.92;99594.69;4982064;28;20491;-75
2022/07/30 00:20:34;;;;;;;11.33;3.00;;;;;;;18.67;60.82;99591.94;4982578;28;20244;-75
2022/07/30 00:23:03;;;;;;;5.20;3.30;;;;;;;18.65;61.16;99593.06;4985703;28;20275;-75
2022/07/30 00:25:28;;;;;;;3.87;3.47;;;;;;;18.63;61.33;99585.22;4984302;28;20213;-75
2022/07/30 00:27:54;;;;;;;5.70;3.83;;;;;;;18.63;61.26;99595.84;4986272;28;21022;-75
2022/07/30 00:30:19;;;;;;;7.50;3.37;;;;;;;18.63;61.14;99584.38;4984430;28;20250;-75
2022/07/30 00:32:45;;;;;;;3.60;3.23;;;;;;;18.68;61.18;99590.09;4986332;28;20206;-75
2022/07/30 00:35:12;;;;;;;3.53;2.93;;;;;;;18.68;61.20;99592.75;4981028;28;20207;-75
2022/07/30 00:37:37;;;;;;;5.20;3.63;;;;;;;18.62;61.02;99590.69;4985854;28;20479;-75
2022/07/30 00:40:04;;;;;;;6.37;3.40;;;;;;;18.53;61.49;99592.44;4985810;28;20679;-75
2022/07/30 00:42:41;;;;;;;4.50;3.13;;;;;;;18.43;61.77;99594.31;4986761;28;20624;-75
2022/07/30 00:45:08;;;;;;;3.80;3.60;;;;;;;18.35;61.59;99587.91;4985119;28;20464;-75
2022/07/30 00:47:33;;;;;;;5.33;3.20;;;;;;;18.30;61.83;99592.81;4985532;28;20472;-75
2022/07/30 00:49:59;;;;;;;4.77;3.10;;;;;;;18.29;62.14;99593.81;4980973;28;20865;-75
2022/07/30 00:52:24;;;;;;;3.30;3.00;;;;;;;18.26;62.20;99603.91;4984261;28;20300;-77
2022/07/30 00:54:49;;;;;;;3.60;3.23;;;;;;;18.19;62.63;99602.81;4978191;28;20192;-74
2022/07/30 00:57:18;;;;;;;2.80;2.60;;;;;;;18.12;62.83;99599.94;4984448;28;20236;-75
2022/07/30 00:59:43;;;;;;;5.63;3.70;;;;;;;18.02;63.04;99601.78;4983363;28;20469;-75
2022/07/30 01:02:08;;;;;;;4.40;3.70;;;;;;;17.92;63.31;99607.94;4986546;28;20234;-75
2022/07/30 01:04:34;;;;;;;4.93;4.03;;;;;;;17.82;63.93;99607.16;4982644;28;20936;-74
2022/07/30 01:06:59;;;;;;;4.77;3.70;;;;;;;17.68;64.31;99604.91;4984994;28;20231;-75
2022/07/30 01:09:24;;;;;;;3.03;2.73;;;;;;;17.57;64.71;99615.69;4985711;28;20205;-75
2022/07/30 01:11:50;;;;;;;3.57;3.27;;;;;;;17.46;65.18;99614.03;4983675;28;20235;-75
2022/07/30 01:14:15;;;;;;;4.43;3.93;;;;;;;17.36;65.47;99603.44;4965918;28;20673;-75
2022/07/30 01:16:42;;;;;;;5.10;4.40;;;;;;;17.31;65.72;99607.47;4975101;28;20568;-74
2022/07/30 01:22:15;;;;;;;4.17;3.10;;;;;;;17.29;65.75;99620.06;4981717;28;20541;-74
2022/07/30 01:24:46;;;;;;;4.20;3.00;;;;;;;17.27;65.71;99614.06;4981712;28;20601;-74
2022/07/30 01:27:14;;;;;;;4.67;3.73;;;;;;;17.25;65.94;99614.19;4979589;28;20894;-75
2022/07/30 01:29:42;;;;;;;3.57;3.27;;;;;;;17.28;65.88;99613.06;4984871;28;20991;-75
2022/07/30 01:32:10;;;;;;;3.50;3.20;;;;;;;17.30;65.80;99606.63;4985891;28;20473;-75
2022/07/30 01:34:37;;;;;;;3.27;2.97;;;;;;;17.31;65.77;99610.97;4981734;28;20460;-75
2022/07/30 01:37:04;;;;;;;5.33;3.93;;;;;;;17.34;65.67;99613.34;4981342;28;20471;-75
2022/07/30 01:39:31;;;;;;;7.80;3.10;;;;;;;17.40;65.59;99614.59;4983311;28;20485;-75
2022/07/30 01:41:58;;;;;;;5.07;3.50;;;;;;;17.42;65.54;99607.34;4984895;28;20490;-75
2022/07/30 01:44:25;;;;;;;3.10;2.83;;;;;;;17.48;65.43;99604.94;4979929;28;20514;-75
2022/07/30 01:46:53;;;;;;;5.67;3.47;;;;;;;17.54;65.27;99603.53;4982324;28;20528;-75
2022/07/30 01:49:21;;;;;;;3.53;3.17;;;;;;;17.55;65.26;99601.72;4996595;28;20463;-75
2022/07/30 01:51:48;;;;;;;3.50;3.20;;;;;;;17.59;65.19;99595.97;4981035;28;20496;-75
2022/07/30 01:54:17;;;;;;;3.67;3.37;;;;;;;17.63;64.96;99607.16;4984637;28;20471;-75
2022/07/30 01:56:46;;;;;;;3.43;3.07;;;;;;;17.62;64.97;99611.63;4979815;28;20463;-75
2022/07/30 01:59:15;;;;;;;3.50;3.03;;;;;;;17.60;65.20;99599.47;4997865;28;20541;-75
2022/07/30 02:01:40;;;;;;;5.03;3.00;;;;;;;17.54;65.41;99608.00;4985036;28;20574;-75
2022/07/30 02:04:06;;;;;;;5.88;4.07;;;;;;;17.47;66.25;99607.72;4985706;28;20527;-75
2022/07/30 02:06:37;;;;;;;3.47;3.13;;;;;;;17.39;66.50;99610.25;4987242;28;20932;-74
2022/07/30 02:09:06;;;;;;;4.80;4.40;;;;;;;17.37;66.50;99618.38;4987296;28;20467;-75
2022/07/30 02:14:28;;;;;;;4.20;3.20;;;;;;;17.37;66.18;99617.53;4988615;28;20462;-74
2022/07/30 02:16:57;;;;;;;4.30;3.70;;;;;;;17.34;66.27;99623.97;4984440;28;20460;-75
2022/07/30 02:19:27;;;;;;;3.53;3.20;;;;;;;17.27;66.52;99625.50;4988057;28;20446;-76
2022/07/30 02:22:02;;;;;;;3.63;3.33;;;;;;;17.10;66.96;99631.53;4981860;28;21030;-75
2022/07/30 02:24:32;;;;;;;4.47;3.83;;;;;;;16.88;67.49;99633.44;4965769;28;21031;-75
2022/07/30 02:27:06;;;;;;;3.87;3.37;;;;;;;16.72;67.92;99633.13;4967685;28;20452;-75
2022/07/30 02:29:35;;;;;;;4.23;3.70;;;;;;;16.59;68.20;99643.97;4966059;28;20462;-75
2022/07/30 02:32:05;;;;;;;3.57;3.27;;;;;;;16.48;68.54;99638.75;4968076;28;20859;-74
2022/07/30 02:34:35;;;;;;;3.60;3.30;;;;;;;16.40;68.70;99638.59;4967187;28;20455;-75
2022/07/30 02:37:01;;;;;;;4.50;4.10;;;;;;;16.36;68.85;99635.34;4965700;28;20881;-74
2022/07/30 02:39:29;;;;;;;3.07;2.87;;;;;;;16.33;69.04;99641.75;4982917;28;21024;-75
2022/07/30 02:41:56;;;;;;;4.27;3.70;;;;;;;16.32;69.19;99641.91;4968320;28;20459;-75
2022/07/30 02:44:25;;;;;;;3.80;3.50;;;;;;;16.31;69.39;99641.06;4963441;28;20492;-74
2022/07/30 02:46:52;;;;;;;5.23;3.87;;;;;;;16.33;69.21;99646.22;4968274;28;20459;-75
2022/07/30 02:49:38;;;;;;;4.37;3.97;;;;;;;16.36;69.09;99644.16;4969252;28;20580;-74
2022/07/30 02:52:07;;;;;;;4.00;3.70;;;;;;;16.43;68.88;99643.63;4968353;28;20581;-75
2022/07/30 02:54:38;;;;;;;3.73;3.20;;;;;;;16.47;68.99;99652.97;4968344;28;20448;-75
2022/07/30 02:57:05;;;;;;;5.07;3.50;;;;;;;16.44;68.63;99653.25;4980535;28;20501;-75
2022/07/30 02:59:32;;;;;;;3.67;3.43;;;;;;;16.41;69.04;99657.00;5003472;28;20461;-75
2022/07/30 03:01:59;;;;;;;4.47;4.07;;;;;;;16.44;68.74;99656.72;5007364;28;20452;-75
2022/07/30 03:04:26;;;;;;;4.40;4.00;;;;;;;16.41;69.01;99657.00;5006926;28;20509;-75
2022/07/30 03:06:53;;;;;;;3.17;2.93;;;;;;;16.37;69.24;99655.59;5006183;28;20520;-74
2022/07/30 03:09:20;;;;;;;3.37;3.13;;;;;;;16.36;69.12;99661.88;5002716;28;20468;-75
2022/07/30 03:11:50;;;;;;;2.70;2.50;;;;;;;16.33;69.20;99659.47;5002058;28;20515;-74
2022/07/30 03:14:15;;;;;;;4.03;3.63;;;;;;;16.32;69.36;99666.59;5008226;28;20972;-74
2022/07/30 03:16:45;;;;;;;3.93;3.63;;;;;;;16.34;69.31;99667.31;5006177;28;20556;-74
2022/07/30 03:19:14;;;;;;;3.40;2.90;;;;;;;16.36;69.29;99668.03;5002849;28;20203;-74
2022/07/30 03:21:40;;;;;;;5.73;3.90;;;;;;;16.37;69.17;99671.50;5007830;28;20960;-75
2022/07/30 03:24:07;;;;;;;5.03;4.30;;;;;;;16.31;69.45;99662.28;5005588;28;20496;-74
2022/07/30 03:26:35;;;;;;;7.10;3.67;;;;;;;16.25;69.65;99668.09;5007901;28;20487;-75
2022/07/30 03:29:01;;;;;;;3.90;3.30;;;;;;;16.24;69.76;99673.53;5005717;28;20486;-74
2022/07/30 03:31:28;;;;;;;4.63;3.40;;;;;;;16.26;69.64;99674.25;5020455;28;20465;-74
2022/07/30 03:33:54;;;;;;;6.33;3.20;;;;;;;16.24;69.62;99673.53;5005850;28;20453;-75
2022/07/30 03:36:20;;;;;;;3.80;3.40;;;;;;;16.18;69.79;99672.25;5007604;28;20444;-75
2022/07/30 03:38:47;;;;;;;4.17;3.87;;;;;;;16.21;69.65;99674.66;5003111;28;20221;-74
2022/07/30 03:41:14;;;;;;;4.53;3.60;;;;;;;16.23;69.62;99677.16;5002744;28;20462;-74
2022/07/30 03:43:44;;;;;;;4.20;3.83;;;;;;;16.24;69.53;99676.19;5003615;28;20481;-74
2022/07/30 03:46:10;;;;;;;10.13;3.77;;;;;;;16.18;69.69;99668.78;5005168;28;20473;-75
2022/07/30 03:48:40;;;;;;;4.80;3.70;;;;;;;16.12;69.69;99678.94;5005845;28;20473;-75
2022/07/30 03:51:08;;;;;;;5.33;3.60;;;;;;;16.12;69.77;99678.94;5000052;28;20466;-74
2022/07/30 03:53:34;;;;;;;4.20;3.40;;;;;;;16.08;69.82;99677.50;5004497;28;21012;-75
2022/07/30 03:56:26;;;;;;;4.00;3.67;;;;;;;16.06;69.83;99684.72;4998762;28;20469;-75
2022/07/30 03:59:04;;;;;;;4.23;3.10;;;;;;;16.04;69.91;99677.88;5002514;28;20978;-74
2022/07/30 04:01:31;;;;;;;4.27;3.53;;;;;;;15.98;70.16;99679.25;4997254;28;21097;-74
2022/07/30 04:04:06;;;;;;;4.00;3.70;;;;;;;15.97;70.13;99685.53;5004690;28;20609;-75
2022/07/30 04:06:38;;;;;;;4.37;3.97;;;;;;;15.94;70.30;99685.78;5000788;28;20501;-74
2022/07/30 04:09:07;;;;;;;5.03;3.53;;;;;;;15.95;70.33;99692.75;5004620;28;20493;-74
2022/07/30 04:11:32;;;;;;;3.53;3.23;;;;;;;15.98;70.20;99699.59;5004581;28;20965;-74
2022/07/30 04:14:02;;;;;;;5.77;4.80;;;;;;;16.02;70.27;99693.09;5003376;28;21225;-75
2022/07/30 04:16:42;;;;;;;4.40;4.00;;;;;;;16.05;69.90;99692.84;5005687;28;20465;-74
2022/07/30 04:19:18;;;;;;;4.30;3.90;;;;;;;16.07;70.01;99699.69;5004594;28;20992;-75
2022/07/30 04:21:46;;;;;;;4.07;3.67;;;;;;;16.05;69.96;99693.66;5001800;28;20468;-74
2022/07/30 04:24:12;;;;;;;3.60;3.30;;;;;;;16.06;70.00;99692.69;5004113;28;20550;-74
2022/07/30 04:26:38;;;;;;;5.65;4.35;;;;;;;16.08;69.89;99687.25;5004809;28;20453;-74
2022/07/30 04:29:06;;;;;;;6.60;4.33;;;;;;;16.12;69.55;99694.84;5005282;28;20582;-74
2022/07/30 04:31:35;;;;;;;4.53;4.03;;;;;;;16.14;69.27;99692.88;4995534;28;20213;-74
2022/07/30 04:34:14;;;;;;;4.80;4.18;;;;;;;16.24;69.50;99700.03;5016086;28;20998;-74
2022/07/30 04:36:40;;;;;;;6.03;4.37;;;;;;;16.26;69.46;99706.06;4984657;28;20225;-74
2022/07/30 04:39:06;;;;;;;6.17;4.70;;;;;;;16.30;69.07;99710.13;5003224;28;21219;-74
2022/07/30 04:41:31;;;;;;;4.83;4.43;;;;;;;16.39;68.91;99714.66;4998035;28;20465;-74
2022/07/30 04:44:18;;;;;;;7.00;3.67;;;;;;;16.49;68.33;99715.50;5002783;28;20572;-75
2022/07/30 04:46:59;;;;;;;4.33;3.80;;;;;;;16.60;67.97;99720.72;4998404;28;20460;-75
2022/07/30 04:49:26;;;;;;;4.97;4.47;;;;;;;16.69;67.80;99721.75;4998287;28;20455;-74
2022/07/30 04:51:53;;;;;;;4.30;3.90;;;;;;;16.76;67.39;99719.38;4994608;28;20249;-74
2022/07/30 04:54:19;;;;;;;4.87;4.37;;;;;;;16.80;66.86;99721.66;4994912;28;20985;-74
2022/07/30 04:56:47;;;;;;;4.90;3.87;;;;;;;16.87;66.73;99727.25;4997824;28;20457;-74
2022/07/30 04:59:15;;;;;;;3.83;3.53;;;;;;;17.44;65.21;99725.72;4970854;28;20502;-74
2022/07/30 05:01:41;;;;;;;4.90;3.90;;;;;;;18.70;60.93;99715.84;4985107;28;20507;-74
2022/07/30 05:04:09;;;;;;;4.55;4.15;;;;;;;19.98;56.80;99710.38;4996126;28;20987;-74
2022/07/30 05:06:36;;;;;;;8.77;4.20;;;;;;;21.03;53.52;99719.09;4996999;28;20211;-74
2022/07/30 05:09:02;;;;;;;4.40;3.63;;;;;;;21.99;50.65;99707.03;4998788;28;20644;-74
2022/07/30 05:11:28;;;;;;;4.57;3.43;;;;;;;22.86;48.17;99705.31;4990841;28;20454;-74
2022/07/30 05:13:53;;;;;;;4.63;4.03;;;;;;;23.57;46.32;99692.69;5013689;28;20229;-74
2022/07/30 05:16:21;;;;;;;4.10;3.70;;;;;;;24.08;45.11;99700.13;4994564;28;20603;-75
2022/07/30 05:18:47;;;;;;;5.80;3.90;;;;;;;24.69;43.83;99697.31;4993588;28;20490;-74
2022/07/30 05:21:12;;;;;;;3.40;3.10;;;;;;;25.33;42.23;99694.78;4998996;28;20463;-75
2022/07/30 05:23:43;;;;;;;4.03;3.60;;;;;;;25.88;41.30;99686.19;4994943;28;20342;-75
2022/07/30 05:26:20;;;;;;;3.60;3.30;;;;;;;26.27;40.07;99696.41;4991603;28;20463;-74
2022/07/30 05:28:48;;;;;;;5.80;3.53;;;;;;;26.55;39.75;99693.72;4996413;28;20486;-75
2022/07/30 05:31:16;;;;;;;3.70;3.40;;;;;;;27.04;38.82;99686.44;4997448;28;20459;-75
2022/07/30 05:33:49;;;;;;;5.10;3.77;;;;;;;27.53;37.95;99688.84;5000946;28;20487;-75
2022/07/30 05:36:18;;;;;;;4.57;3.40;;;;;;;27.90;37.32;99692.03;5001057;28;20447;-75
2022/07/30 05:38:44;;;;;;;6.97;3.87;;;;;;;28.32;35.95;99694.44;5003201;28;20517;-75
2022/07/30 05:41:28;;;;;;;4.17;3.77;;;;;;;28.93;35.17;99695.97;5004491;28;20472;-75
2022/07/30 05:44:00;;;;;;;3.53;3.23;;;;;;;29.33;34.32;99692.00;4999924;28;20846;-75
2022/07/30 05:46:27;;;;;;;4.57;3.77;;;;;;;29.78;33.71;99697.31;5003934;28;20469;-75
2022/07/30 05:48:53;;;;;;;4.70;4.40;;;;;;;30.17;32.71;99695.31;4987031;28;20489;-75
2022/07/30 05:51:19;;;;;;;5.50;3.57;;;;;;;30.45;32.41;99693.19;5000465;28;20221;-75
2022/07/30 05:53:45;;;;;;;5.10;3.30;;;;;;;30.78;31.68;99687.38;5003374;28;20915;-75
2022/07/30 05:56:16;;;;;;;5.53;3.30;;;;;;;31.14;30.98;99691.94;5003070;28;20489;-75
2022/07/30 05:59:03;;;;;;;5.63;3.50;;;;;;;31.40;30.03;99685.31;5033864;23;20503;-80
2022/07/30 06:01:48;;;;;;;4.10;3.70;;;;;;;31.51;29.71;99681.81;4984505;28;20736;-80
2022/07/30 06:04:19;;;;;;;3.70;3.40;;;;;;;31.78;29.15;99684.06;4988437;28;20483;-79
2022/07/30 06:06:48;;;;;;;4.57;4.03;;;;;;;31.92;28.89;99696.44;4988042;28;20983;-78
2022/07/30 06:09:14;;;;;;;5.10;3.90;;;;;;;31.81;29.06;99686.34;5008471;28;20569;-81
2022/07/30 06:11:40;;;;;;;6.17;4.23;;;;;;;31.94;28.58;99694.28;5007345;28;20208;-79
2022/07/30 06:14:05;;;;;;;7.37;3.80;;;;;;;31.89;28.35;99694.16;5004819;28;20497;-80
2022/07/30 06:16:31;;;;;;;5.67;4.43;;;;;;;31.98;28.04;99700.09;5008279;28;20702;-79
2022/07/30 06:18:56;;;;;;;3.77;3.40;;;;;;;32.13;28.36;99703.13;5004204;28;20228;-79
2022/07/30 06:21:34;;;;;;;4.43;4.07;;;;;;;31.81;28.74;99697.22;5003641;28;20208;-79
2022/07/30 06:24:09;;;;;;;5.77;3.43;;;;;;;31.89;28.45;99709.59;5007817;28;21018;-78
2022/07/30 06:26:38;;;;;;;4.53;3.67;;;;;;;32.27;27.70;99709.19;5007531;28;20496;-78
2022/07/30 06:29:05;;;;;;;4.03;3.63;;;;;;;32.22;27.84;99702.78;5006565;28;20520;-78
2022/07/30 06:31:31;;;;;;;4.70;3.07;;;;;;;32.33;27.40;99710.13;5011248;28;20540;-78
2022/07/30 06:33:56;;;;;;;3.50;3.20;;;;;;;32.66;26.80;99706.78;5004512;28;20457;-79
2022/07/30 06:36:24;;;;;;;3.53;3.23;;;;;;;33.10;25.92;99707.13;5013040;28;20296;-78
2022/07/30 06:38:59;;;;;;;4.57;3.27;;;;;;;33.07;26.28;99706.81;5012780;28;20477;-79
2022/07/30 06:41:45;;;;;;;3.33;3.03;;;;;;;33.21;25.77;99714.41;5011422;28;20438;-80
2022/07/30 06:44:12;;;;;;;4.40;4.00;;;;;;;33.78;25.01;99708.09;5003881;28;20531;-78
2022/07/30 06:47:07;;;;;;;6.03;3.97;;;;;;;34.25;24.50;99713.22;5017560;28;20464;-78
2022/07/30 06:49:36;;;;;;;4.63;4.23;;;;;;;34.49;24.22;99710.28;5007619;28;20501;-79
2022/07/30 06:52:03;;;;;;;3.53;3.23;;;;;;;34.75;23.84;99714.97;5014504;28;20781;-79
2022/07/30 06:54:28;;;;;;;3.90;3.60;;;;;;;34.70;23.91;99704.03;5013156;28;20463;-79
2022/07/30 06:57:18;;;;;;;5.70;3.83;;;;;;;34.74;23.90;99712.53;5014616;28;20955;-79
2022/07/30 06:59:44;;;;;;;5.97;3.67;;;;;;;34.93;23.41;99713.03;5010543;28;20522;-79
2022/07/30 07:02:15;;;;;;;6.43;3.78;;;;;;;35.28;23.02;99709.06;5027925;28;20483;-79
2022/07/30 07:04:59;;;;;;;3.70;3.30;;;;;;;35.50;22.93;99714.47;5014111;28;20305;-79
2022/07/30 07:07:25;;;;;;;3.87;3.47;;;;;;;35.66;22.26;99708.06;5012695;28;20467;-79
2022/07/30 07:09:50;;;;;;;3.63;3.30;;;;;;;35.85;21.80;99713.97;5004162;28;20303;-79
2022/07/30 07:12:34;;;;;;;4.10;3.80;;;;;;;36.03;21.85;99718.22;4999566;28;20611;-79
2022/07/30 07:15:00;;;;;;;3.77;3.47;;;;;;;35.77;21.92;99711.72;4997344;28;20937;-79
2022/07/30 07:17:25;;;;;;;4.30;2.60;;;;;;;35.55;21.81;99712.59;4998445;28;20940;-79
2022/07/30 07:19:57;;;;;;;3.13;2.80;;;;;;;35.46;22.16;99714.97;5003780;28;20231;-79
2022/07/30 07:22:23;;;;;;;8.17;4.00;;;;;;;35.64;21.69;99710.22;5001733;28;20455;-79
2022/07/30 07:24:49;;;;;;;4.27;3.40;;;;;;;35.36;22.31;99709.41;5015213;28;20498;-80
2022/07/30 07:27:17;;;;;;;12.80;5.10;;;;;;;35.47;22.18;99715.81;5010819;28;20276;-79
2022/07/30 07:29:46;;;;;;;4.07;2.70;;;;;;;35.60;22.20;99709.13;5011539;28;20487;-79
2022/07/30 07:32:12;;;;;;;3.13;2.93;;;;;;;35.53;22.37;99722.13;5012596;28;20753;-78
2022/07/30 07:34:38;;;;;;;6.37;3.37;;;;;;;35.56;22.20;99713.41;5011074;28;20671;-79
2022/07/30 07:37:04;;;;;;;11.07;4.40;;;;;;;35.62;22.21;99710.50;5008004;28;20460;-80
2022/07/30 07:39:29;;;;;;;8.20;4.10;;;;;;;35.84;21.75;99709.59;5013372;28;20236;-79
2022/07/30 07:41:55;;;;;;;6.60;3.40;;;;;;;35.93;21.83;99708.00;5020494;28;20234;-79
2022/07/30 07:44:22;;;;;;;7.27;4.10;;;;;;;36.00;21.58;99707.78;5014128;28;20228;-79
2022/07/30 07:46:48;;;;;;;4.30;3.37;;;;;;;35.86;21.71;99710.97;5016410;28;20477;-79
2022/07/30 07:49:13;;;;;;;10.17;3.67;;;;;;;36.04;21.63;99708.91;5011689;28;20590;-78
2022/07/30 07:51:48;;;;;;;3.93;3.50;;;;;;;35.65;21.88;99714.63;5014514;28;20207;-79
2022/07/30 07:54:16;;;;;;;3.37;3.07;;;;;;;35.50;22.21;99714.47;5006402;28;20453;-79
2022/07/30 07:56:42;;;;;;;5.00;3.17;;;;;;;35.84;21.60;99709.59;5012989;28;20466;-79
2022/07/30 07:59:10;;;;;;;3.47;3.03;;;;;;;35.88;21.76;99713.44;5011261;28;20267;-79
2022/07/30 08:01:35;;;;;;;21.33;5.13;;;;;;;35.85;21.59;99709.31;5009656;28;20932;-78
2022/07/30 08:04:16;;;;;;;4.90;3.70;;;;;;;36.17;21.18;99705.75;5007142;28;20291;-79
2022/07/30 08:07:17;;;;;;;15.70;6.73;;;;;;;36.30;21.26;99705.28;5008420;28;20466;-79
2022/07/30 08:09:48;;;;;;;4.83;2.90;;;;;;;36.28;21.10;99709.38;5009244;28;20509;-79
2022/07/30 08:12:38;;;;;;;18.67;5.37;;;;;;;36.62;20.54;99712.59;5011031;28;20959;-78
2022/07/30 08:15:35;;;;;;;5.60;3.57;;;;;;;36.41;20.50;99703.41;5011901;28;20509;-78
2022/07/30 08:18:21;;;;;;;3.87;3.30;;;;;;;36.14;21.22;99698.06;5014424;28;21053;-78
2022/07/30 08:20:56;;;;;;;3.57;3.07;;;;;;;36.53;20.44;99701.28;5014834;28;20456;-79
2022/07/30 08:23:26;;;;;;;5.23;3.30;;;;;;;36.97;20.23;99702.81;5012844;28;20588;-79
2022/07/30 08:25:52;;;;;;;5.53;2.87;;;;;;;37.24;20.07;99699.09;5017704;28;20955;-78
2022/07/30 08:28:17;;;;;;;3.10;2.80;;;;;;;37.12;19.68;99704.84;5021512;28;20266;-79
2022/07/30 08:30:43;;;;;;;3.77;2.93;;;;;;;36.91;20.35;99701.19;5010553;28;20656;-79
2022/07/30 08:33:09;;;;;;;4.00;3.67;;;;;;;36.76;20.25;99702.78;5011981;28;20512;-79
2022/07/30 08:35:34;;;;;;;3.07;2.80;;;;;;;36.66;20.37;99704.66;5008221;28;20592;-78
2022/07/30 08:38:00;;;;;;;3.63;3.43;;;;;;;36.37;20.97;99705.03;5009464;28;20286;-78
2022/07/30 08:40:26;;;;;;;3.87;3.47;;;;;;;36.41;21.03;99702.59;5012495;28;20233;-78
2022/07/30 08:43:06;;;;;;;6.97;3.60;;;;;;;35.75;21.55;99701.03;5016671;28;20825;-78
2022/07/30 08:45:32;;;;;;;5.77;3.73;;;;;;;34.57;23.17;99702.50;5009989;28;20490;-79
2022/07/30 08:48:07;;;;;;;5.30;3.30;;;;;;;33.36;24.77;99718.53;5009295;28;20960;-78
2022/07/30 08:50:43;;;;;;;3.40;3.20;;;;;;;32.71;25.46;99706.91;5002410;28;20694;-80
2022/07/30 08:53:35;;;;;;;3.73;3.00;;;;;;;32.25;26.23;99703.16;4997978;28;20562;-78
2022/07/30 08:56:03;;;;;;;16.57;4.60;;;;;;;31.89;26.97;99702.31;5002481;28;20459;-78
2022/07/30 08:58:34;;;;;;;6.60;3.33;;;;;;;31.72;27.06;99702.13;5006864;28;20676;-78
2022/07/30 09:01:00;;;;;;;18.40;6.53;;;;;;;31.33;26.90;99710.88;5010689;28;20467;-79
2022/07/30 09:03:27;;;;;;;5.60;3.13;;;;;;;30.99;27.48;99708.59;5015979;28;20486;-78
2022/07/30 09:05:56;;;;;;;4.73;2.83;;;;;;;30.95;27.31;99717.47;5008878;28;20516;-78
2022/07/30 09:08:21;;;;;;;7.03;3.57;;;;;;;30.80;27.22;99702.38;5012338;28;20876;-79
2022/07/30 09:10:48;;;;;;;2.93;2.53;;;;;;;30.97;27.00;99705.28;5011292;28;20240;-78
2022/07/30 09:13:28;;;;;;;4.03;2.60;;;;;;;31.04;26.59;99711.47;5012977;28;20622;-78
2022/07/30 09:15:56;;;;;;;4.73;2.30;;;;;;;31.00;26.37;99706.72;5022913;28;20899;-79
2022/07/30 09:18:43;;;;;;;7.27;2.80;;;;;;;30.89;27.00;99711.03;5013227;28;20459;-78
2022/07/30 09:21:21;;;;;;;2.43;2.23;;;;;;;31.02;26.23;99713.56;5015592;28;20486;-78
2022/07/30 09:24:02;;;;;;;2.90;2.37;;;;;;;31.17;25.85;99712.34;5008666;28;20586;-78
2022/07/30 09:26:55;;;;;;;3.07;2.80;;;;;;;31.13;25.87;99711.97;5009817;28;20473;-78
2022/07/30 09:29:58;;;;;;;6.97;2.30;;;;;;;31.01;25.33;99703.78;5010774;28;21081;-79
2022/07/30 09:32:52;;;;;;;4.50;2.35;;;;;;;30.88;24.44;99714.81;5039673;23;20506;-91
2022/07/30 09:35:41;;;;;;;2.57;2.37;;;;;;;30.51;23.78;99714.78;4992948;28;20215;-91
2022/07/30 09:38:47;;;;;;;3.73;3.00;;;;;;;29.97;24.23;99716.31;4993769;28;20565;-90
2022/07/30 09:41:55;;;;;;;2.40;2.30;;;;;;;29.54;25.34;99717.03;5014176;28;20463;-91
2022/07/30 09:44:37;;;;;;;5.10;2.30;;;;;;;29.54;24.96;99709.78;5029461;28;21015;-90
2022/07/30 09:47:03;;;;;;;3.90;2.50;;;;;;;29.66;25.61;99703.69;5012593;28;20473;-88
2022/07/30 09:49:36;;;;;;;2.40;2.20;;;;;;;29.81;25.95;99708.75;5033644;28;20451;-90
2022/07/30 09:52:08;;;;;;;2.30;1.83;;;;;;;29.89;26.09;99708.47;5016230;28;20472;-90
2022/07/30 09:54:52;;;;;;;2.50;2.30;;;;;;;30.02;25.78;99699.41;5017377;28;20814;-90
2022/07/30 09:57:22;;;;;;;4.97;2.10;;;;;;;30.27;25.56;99696.69;5025467;28;20592;-90
2022/07/30 09:59:51;;;;;;;2.70;2.27;;;;;;;30.43;25.40;99686.13;5014395;28;20466;-88
2022/07/30 10:02:19;;;;;;;2.23;2.07;;;;;;;30.12;25.78;99687.03;5023948;28;20454;-91
2022/07/30 10:05:26;;;;;;;3.43;2.23;;;;;;;29.82;26.08;99696.91;5000993;28;20252;-90
2022/07/30 10:08:02;;;;;;;4.37;2.43;;;;;;;30.16;25.97;99693.66;5013377;28;21016;-90
2022/07/30 10:10:30;;;;;;;2.63;2.43;;;;;;;30.71;25.34;99695.59;4987855;28;20540;-90
2022/07/30 10:13:07;;;;;;;2.50;2.30;;;;;;;31.09;24.47;99689.91;5007581;28;20459;-92
2022/07/30 10:15:44;;;;;;;3.40;2.23;;;;;;;31.49;24.05;99683.94;4993140;28;20468;-90
2022/07/30 10:18:19;;;;;;;3.10;2.20;;;;;;;31.67;24.16;99691.16;4996944;28;20460;-91
2022/07/30 10:21:09;;;;;;;5.07;2.70;;;;;;;32.03;23.53;99685.78;4987050;28;20466;-92
2022/07/30 10:24:10;;;;;;;5.10;2.73;;;;;;;32.36;23.26;99686.00;4993536;28;20987;-92
2022/07/30 10:27:05;;;;;;;;;;;;;;;;;;;;;
2022/07/30 10:29:50;;;;;;;5.53;2.90;;;;;;;32.08;23.77;99691.31;4994691;28;20474;-91
2022/07/30 10:32:16;;;;;;;3.00;2.27;;;;;;;31.62;24.35;99688.34;4994770;28;20532;-91
2022/07/30 10:34:42;;;;;;;4.93;2.13;;;;;;;31.76;23.97;99686.22;4998278;28;20455;-91
2022/07/30 10:37:15;;;;;;;4.30;2.13;;;;;;;31.95;23.72;99692.41;4996917;28;20486;-93
2022/07/30 10:39:57;;;;;;;6.30;2.67;;;;;;;31.78;23.94;99675.09;4993485;28;21082;-91
2022/07/30 10:42:56;;;;;;;2.30;2.10;;;;;;;31.61;24.29;99666.84;4995978;28;20463;-91
2022/07/30 10:45:57;;;;;;;2.27;2.07;;;;;;;30.99;24.53;99677.94;5000907;28;20482;-90
2022/07/30 10:48:26;;;;;;;3.00;2.50;;;;;;;30.51;25.33;99671.41;4997283;28;20456;-91
2022/07/30 10:50:56;;;;;;;4.83;2.80;;;;;;;30.75;25.41;99668.84;5001889;28;20499;-90
2022/07/30 10:53:45;;;;;;;4.43;2.30;;;;;;;31.02;24.54;99672.88;5006397;28;20542;-91
2022/07/30 10:56:22;;;;;;;5.83;1.90;;;;;;;31.24;24.71;99656.09;5006987;28;20493;-92
2022/07/30 10:58:56;;;;;;;4.93;2.63;;;;;;;31.57;24.22;99660.19;4998287;28;20572;-94
2022/07/30 11:01:22;;;;;;;3.90;2.67;;;;;;;31.77;23.78;99655.28;4996990;28;20474;-91
2022/07/30 11:04:22;;;;;;;3.00;2.70;;;;;;;32.00;24.10;99656.38;5000672;28;20487;-93
2022/07/30 11:07:04;;;;;;;2.93;2.43;;;;;;;31.94;23.74;99656.25;5003372;28;20459;-90
2022/07/30 11:10:13;;;;;;;5.20;2.40;;;;;;;31.61;24.45;99662.22;4997747;28;20473;-90
2022/07/30 11:12:54;;;;;;;4.17;2.47;;;;;;;31.73;24.42;99654.06;4996691;28;20475;-90
2022/07/30 11:15:22;;;;;;;2.17;1.97;;;;;;;32.07;24.29;99657.06;5000443;28;20586;-89
2022/07/30 11:18:00;;;;;;;2.60;2.40;;;;;;;32.43;24.27;99655.13;4994202;28;20886;-90
2022/07/30 11:20:28;;;;;;;2.70;2.50;;;;;;;32.47;23.87;99653.63;4996541;28;20486;-88
2022/07/30 11:23:35;;;;;;;2.23;2.00;;;;;;;32.44;23.91;99651.38;4994480;28;20466;-91
2022/07/30 11:26:06;;;;;;;2.30;2.10;;;;;;;32.38;23.97;99653.97;4997441;28;20485;-90
2022/07/30 11:28:45;;;;;;;3.03;2.50;;;;;;;32.36;24.09;99645.22;4993822;28;20485;-90
2022/07/30 11:31:33;;;;;;;2.77;2.50;;;;;;;32.33;23.96;99651.16;4997075;28;20478;-89
2022/07/30 11:34:24;;;;;;;2.50;2.30;;;;;;;32.48;24.31;99642.50;4994474;28;20537;-90
2022/07/30 11:37:17;;;;;;;3.90;2.60;;;;;;;32.43;24.03;99644.25;4997867;28;21362;-89
2022/07/30 11:40:08;;;;;;;2.57;2.00;;;;;;;32.28;23.74;99644.78;4994638;28;20478;-88
2022/07/30 11:42:36;;;;;;;4.17;3.03;;;;;;;32.12;24.28;99640.88;4996888;28;20946;-90
2022/07/30 11:45:22;;;;;;;2.37;2.00;;;;;;;32.03;24.14;99642.31;4999042;28;20954;-89
2022/07/30 11:48:08;;;;;;;2.60;2.40;;;;;;;31.71;23.96;99634.50;4995295;28;20590;-90
2022/07/30 11:50:34;;;;;;;4.37;2.60;;;;;;;31.11;24.64;99640.00;4996379;28;20483;-91
2022/07/30 11:53:03;;;;;;;4.23;2.20;;;;;;;30.92;25.43;99653.63;4997864;28;21015;-89
2022/07/30 11:55:45;;;;;;;;;;;;;;;;;;;;;
2022/07/30 11:58:33;;;;;;;3.83;2.53;;;;;;;30.94;26.19;99646.06;4993316;28;20471;-91
2022/07/30 12:01:14;;;;;;;2.60;2.40;;;;;;;31.15;25.81;99643.91;4996690;28;20899;-91
2022/07/30 12:03:42;;;;;;;2.83;2.40;;;;;;;31.30;25.51;99647.03;5013767;28;20487;-89
2022/07/30 12:06:16;;;;;;;4.60;2.00;;;;;;;31.38;25.46;99643.16;4996779;28;21013;-92